createdAt,value
2018-10-18T00:01:11.547Z,94978.18
2018-10-18T00:03:40.196Z,94973.85
2018-10-18T00:06:08.950Z,94973.37
2018-10-18T00:08:37.595Z,94972.34
2018-10-18T00:11:06.640Z,94968.73
2018-10-18T00:13:35.508Z,94961.61
2018-10-18T00:16:04.236Z,94967.39
2018-10-18T00:18:32.902Z,94966.67
2018-10-18T00:21:01.540Z,94961.63
2018-10-18T00:23:30.175Z,94958.33
2018-10-18T00:25:58.792Z,94964.23
2018-10-18T00:28:27.457Z,94966.94
2018-10-18T00:30:56.100Z,94963.55
2018-10-18T00:33:24.739Z,94965.14
2018-10-18T00:35:53.437Z,94962.15
2018-10-18T00:38:22.137Z,94968.70
2018-10-18T00:40:50.817Z,94965.77
2018-10-18T00:43:19.458Z,94963.55
2018-10-18T00:45:48.142Z,94956.99
2018-10-18T00:48:16.871Z,94956.26
2018-10-18T00:50:45.473Z,94951.92
2018-10-18T00:53:14.122Z,94953.95
2018-10-18T00:55:42.770Z,94949.68
2018-10-18T00:58:11.496Z,94946.66
2018-10-18T01:00:40.215Z,94950.45
2018-10-18T01:03:08.912Z,94948.71
2018-10-18T01:05:37.724Z,94947.91
2018-10-18T01:08:06.514Z,94948.83
2018-10-18T01:10:35.146Z,94950.45
2018-10-18T01:13:03.990Z,94942.48
2018-10-18T01:15:32.611Z,94946.61
2018-10-18T01:18:01.308Z,94939.63
2018-10-18T01:20:29.997Z,94939.57
2018-10-18T01:22:58.639Z,94939.45
2018-10-18T01:25:27.317Z,94943.13
2018-10-18T01:27:56.004Z,94935.25
2018-10-18T01:30:24.789Z,94939.28
2018-10-18T01:32:53.368Z,94938.00
2018-10-18T01:35:22.097Z,94939.08
2018-10-18T01:37:50.734Z,94936.89
2018-10-18T01:40:19.382Z,94928.92
2018-10-18T01:42:48.029Z,94929.12
2018-10-18T01:45:16.754Z,94929.00
2018-10-18T01:47:45.352Z,94924.13
2018-10-18T01:50:13.990Z,94925.41
2018-10-18T01:52:42.646Z,94930.09
2018-10-18T01:55:11.344Z,94928.66
2018-10-18T01:57:40.083Z,94929.34
2018-10-18T02:00:10.085Z,94922.20
2018-10-18T02:02:39.057Z,94922.56
2018-10-18T02:05:07.753Z,94920.97
2018-10-18T02:07:36.462Z,94917.41
2018-10-18T02:10:05.620Z,94910.67
2018-10-18T02:12:34.246Z,94908.61
2018-10-18T02:15:02.937Z,94906.51
2018-10-18T02:17:31.640Z,94904.02
2018-10-18T02:20:00.236Z,94905.78
2018-10-18T02:22:28.899Z,94905.95
2018-10-18T02:24:57.594Z,94900.55
2018-10-18T02:27:26.219Z,94895.25
2018-10-18T02:29:54.828Z,94897.75
2018-10-18T02:32:23.553Z,94895.34
2018-10-18T02:34:52.228Z,94895.58
2018-10-18T02:37:20.846Z,94875.55
2018-10-18T02:39:49.469Z,94898.38
2018-10-18T02:42:18.133Z,94901.36
2018-10-18T02:44:46.752Z,94899.38
2018-10-18T02:47:15.439Z,94904.03
2018-10-18T02:49:44.080Z,94901.05
2018-10-18T02:52:12.977Z,94894.58
2018-10-18T02:54:41.858Z,94899.99
2018-10-18T02:57:10.573Z,94902.10
2018-10-18T02:59:39.225Z,94903.38
2018-10-18T03:02:08.401Z,94899.20
2018-10-18T03:04:37.084Z,94892.55
2018-10-18T03:07:06.101Z,94892.99
2018-10-18T03:09:34.716Z,94889.20
2018-10-18T03:12:03.490Z,94892.26
2018-10-18T03:14:32.117Z,94888.02
2018-10-18T03:17:00.845Z,94882.16
2018-10-18T03:19:29.526Z,94881.97
2018-10-18T03:21:58.196Z,94880.19
2018-10-18T03:24:26.837Z,94877.06
2018-10-18T03:26:55.488Z,94882.55
2018-10-18T03:29:24.164Z,94881.59
2018-10-18T03:31:52.773Z,94888.12
2018-10-18T03:34:21.393Z,94876.11
2018-10-18T03:36:50.008Z,94874.45
2018-10-18T03:39:18.647Z,94884.58
2018-10-18T03:41:47.697Z,94878.84
2018-10-18T03:44:16.839Z,94879.44
2018-10-18T03:46:45.546Z,94879.89
2018-10-18T03:49:14.221Z,94870.69
2018-10-18T03:51:42.856Z,94872.72
2018-10-18T03:54:11.652Z,94872.75
2018-10-18T03:56:40.269Z,94874.16
2018-10-18T03:59:09.068Z,94872.13
2018-10-18T04:01:37.691Z,94879.73
2018-10-18T04:04:06.392Z,94877.48
2018-10-18T04:06:36.195Z,94886.09
2018-10-18T04:09:06.322Z,94874.84
2018-10-18T04:11:35.457Z,94874.92
2018-10-18T04:14:04.137Z,94877.64
2018-10-18T04:16:32.744Z,94872.63
2018-10-18T04:19:01.544Z,94880.59
2018-10-18T04:21:30.391Z,94869.49
2018-10-18T04:23:59.087Z,94872.42
2018-10-18T04:26:27.679Z,94876.73
2018-10-18T04:28:56.343Z,94882.67
2018-10-18T04:31:24.997Z,94884.56
2018-10-18T04:33:53.745Z,94884.38
2018-10-18T04:36:22.463Z,94880.73
2018-10-18T04:38:51.094Z,94875.09
2018-10-18T04:41:19.701Z,94881.77
2018-10-18T04:43:48.402Z,94883.37
2018-10-18T04:46:17.093Z,94886.13
2018-10-18T04:48:45.747Z,94887.44
2018-10-18T04:51:14.415Z,94889.70
2018-10-18T04:53:43.056Z,94889.84
2018-10-18T04:56:11.743Z,94893.67
2018-10-18T04:58:40.357Z,94884.30
2018-10-18T05:01:09.101Z,94890.69
2018-10-18T05:03:37.696Z,94896.04
2018-10-18T05:06:07.000Z,94896.01
2018-10-18T05:08:35.635Z,94893.67
2018-10-18T05:11:04.315Z,94898.77
2018-10-18T05:13:32.987Z,94904.31
2018-10-18T05:16:01.673Z,94904.72
2018-10-18T05:18:30.361Z,94905.41
2018-10-18T05:20:59.050Z,94909.27
2018-10-18T05:23:27.717Z,94907.17
2018-10-18T05:25:56.400Z,94906.75
2018-10-18T05:28:24.996Z,94908.16
2018-10-18T05:30:53.702Z,94906.41
2018-10-18T05:33:22.371Z,94905.52
2018-10-18T05:35:51.057Z,94906.83
2018-10-18T05:38:19.713Z,94908.86
2018-10-18T05:40:48.450Z,94910.80
2018-10-18T05:43:17.148Z,94911.58
2018-10-18T05:45:45.718Z,94909.04
2018-10-18T05:48:14.359Z,94910.27
2018-10-18T05:50:43.015Z,94915.91
2018-10-18T05:53:11.818Z,94916.20
2018-10-18T05:55:40.442Z,94922.91
2018-10-18T05:58:09.231Z,94926.23
2018-10-18T06:00:37.981Z,94929.56
2018-10-18T06:03:06.779Z,94930.08
2018-10-18T06:05:35.468Z,94933.84
2018-10-18T06:08:04.303Z,94931.35
2018-10-18T06:10:44.034Z,94933.30
2018-10-18T06:13:13.145Z,94935.59
2018-10-18T06:15:41.776Z,94935.05
2018-10-18T06:18:10.512Z,94929.98
2018-10-18T06:20:39.304Z,94930.63
2018-10-18T06:23:07.986Z,94928.50
2018-10-18T06:25:36.754Z,94929.23
2018-10-18T06:28:05.497Z,94926.58
2018-10-18T06:30:34.304Z,94923.63
2018-10-18T06:33:03.434Z,94924.81
2018-10-18T06:35:32.255Z,94921.38
2018-10-18T06:38:01.057Z,94927.41
2018-10-18T06:40:29.721Z,94926.56
2018-10-18T06:42:58.453Z,94927.63
2018-10-18T06:45:27.955Z,94922.20
2018-10-18T06:47:56.741Z,94921.12
2018-10-18T06:50:25.486Z,94926.83
2018-10-18T06:52:54.231Z,94921.40
2018-10-18T06:55:22.928Z,94921.55
2018-10-18T06:57:51.610Z,94922.29
2018-10-18T07:00:24.590Z,94921.90
2018-10-18T07:02:53.334Z,94917.63
2018-10-18T07:05:22.149Z,94917.98
2018-10-18T07:07:50.890Z,94915.45
2018-10-18T07:10:22.065Z,94919.73
2018-10-18T07:12:51.053Z,94911.93
2018-10-18T07:15:19.903Z,94912.77
2018-10-18T07:17:48.682Z,94914.75
2018-10-18T07:20:17.363Z,94903.23
2018-10-18T07:22:46.080Z,94911.30
2018-10-18T07:25:15.991Z,94908.30
2018-10-18T07:27:44.807Z,94904.17
2018-10-18T07:30:20.229Z,94902.06
2018-10-18T07:32:49.528Z,94905.90
2018-10-18T07:35:18.244Z,94906.52
2018-10-18T07:37:47.015Z,94903.72
2018-10-18T07:40:16.688Z,94900.48
2018-10-18T07:42:46.266Z,94897.27
2018-10-18T07:45:15.615Z,94895.95
2018-10-18T07:47:44.892Z,94891.82
2018-10-18T07:50:13.987Z,94894.52
2018-10-18T07:52:42.732Z,94891.78
2018-10-18T07:55:11.704Z,94889.67
2018-10-18T07:57:40.450Z,94885.53
2018-10-18T08:00:11.770Z,94875.42
2018-10-18T08:02:40.720Z,94878.84
2018-10-18T08:05:09.970Z,94885.27
2018-10-18T08:07:39.099Z,94878.87
2018-10-18T08:10:10.737Z,94878.99
2018-10-18T08:12:40.336Z,94877.86
2018-10-18T08:15:10.365Z,94881.66
2018-10-18T08:17:39.351Z,94880.66
2018-10-18T08:20:08.976Z,94874.38
2018-10-18T08:22:37.876Z,94873.06
2018-10-18T08:25:06.720Z,94874.97
2018-10-18T08:27:35.911Z,94878.63
2018-10-18T08:30:08.301Z,94875.94
2018-10-18T08:32:37.110Z,94876.88
2018-10-18T08:35:07.510Z,94876.36
2018-10-18T08:37:36.240Z,94879.70
2018-10-18T08:40:05.488Z,94875.81
2018-10-18T08:42:34.191Z,94868.19
2018-10-18T08:45:02.961Z,94866.59
2018-10-18T08:47:31.664Z,94867.08
2018-10-18T08:50:00.490Z,94861.21
2018-10-18T08:52:29.123Z,94867.30
2018-10-18T08:54:57.958Z,94872.91
2018-10-18T08:57:26.598Z,94870.79
2018-10-18T08:59:55.359Z,94872.34
2018-10-18T09:02:24.093Z,94874.43
2018-10-18T09:04:52.941Z,94870.33
2018-10-18T09:07:21.585Z,94873.20
2018-10-18T09:09:50.289Z,94870.27
2018-10-18T09:12:19.006Z,94870.84
2018-10-18T09:14:47.725Z,94874.55
2018-10-18T09:17:16.371Z,94871.30
2018-10-18T09:19:45.085Z,94862.30
2018-10-18T09:22:13.813Z,94867.97
2018-10-18T09:24:42.513Z,94865.27
2018-10-18T09:27:11.225Z,94866.27
2018-10-18T09:29:39.923Z,94860.19
2018-10-18T09:32:08.790Z,94855.49
2018-10-18T09:34:37.501Z,94846.87
2018-10-18T09:37:06.920Z,94839.16
2018-10-18T09:39:35.609Z,94837.14
2018-10-18T09:42:04.329Z,94833.56
2018-10-18T09:44:33.146Z,94829.22
2018-10-18T09:47:01.782Z,94831.90
2018-10-18T09:49:30.501Z,94824.03
2018-10-18T09:51:59.160Z,94823.45
2018-10-18T09:54:27.852Z,94823.60
2018-10-18T09:56:56.549Z,94813.38
2018-10-18T09:59:25.352Z,94814.12
2018-10-18T10:01:59.361Z,94804.09
2018-10-18T10:04:28.116Z,94802.80
2018-10-18T10:06:56.883Z,94796.77
2018-10-18T10:09:25.700Z,94797.73
2018-10-18T10:11:54.479Z,94792.58
2018-10-18T10:14:23.227Z,94785.36
2018-10-18T10:16:51.965Z,94793.30
2018-10-18T10:19:20.684Z,94788.06
2018-10-18T10:21:49.450Z,94785.26
2018-10-18T10:24:18.141Z,94777.75
2018-10-18T10:26:47.170Z,94774.51
2018-10-18T10:29:16.074Z,94770.06
2018-10-18T10:31:44.796Z,94765.76
2018-10-18T10:34:13.595Z,94764.37
2018-10-18T10:36:42.219Z,94761.31
2018-10-18T10:39:11.153Z,94756.41
2018-10-18T10:41:40.421Z,94745.81
2018-10-18T10:44:10.256Z,94745.98
2018-10-18T10:46:40.622Z,94737.73
2018-10-18T10:49:09.939Z,94735.72
2018-10-18T10:51:38.655Z,94734.14
2018-10-18T10:54:08.364Z,94730.42
2018-10-18T10:56:37.037Z,94726.44
2018-10-18T10:59:16.914Z,94731.50
2018-10-18T11:01:45.664Z,94722.98
2018-10-18T11:04:14.512Z,94725.61
2018-10-18T11:06:44.249Z,94719.52
2018-10-18T11:09:13.335Z,94711.98
2018-10-18T11:11:42.088Z,94710.33
2018-10-18T11:14:10.834Z,94710.39
2018-10-18T11:16:39.475Z,94710.28
2018-10-18T11:19:10.768Z,94711.95
2018-10-18T11:21:40.391Z,94711.34
2018-10-18T11:24:09.158Z,94704.44
2018-10-18T11:26:37.750Z,94704.44
2018-10-18T11:29:06.786Z,94694.53
2018-10-18T11:31:35.659Z,94696.12
2018-10-18T11:34:04.354Z,94688.83
2018-10-18T11:36:33.083Z,94688.53
2018-10-18T11:39:01.782Z,94689.32
2018-10-18T11:41:30.473Z,94684.78
2018-10-18T11:43:59.182Z,94686.70
2018-10-18T11:46:27.991Z,94679.34
2018-10-18T11:48:56.642Z,94676.86
2018-10-18T11:51:25.441Z,94676.43
2018-10-18T11:53:54.118Z,94680.85
2018-10-18T11:56:22.977Z,94678.98
2018-10-18T11:58:51.714Z,94675.79
2018-10-18T12:01:20.717Z,94664.70
2018-10-18T12:03:49.387Z,94660.44
2018-10-18T12:06:18.057Z,94661.56
2018-10-18T12:08:46.737Z,94662.00
2018-10-18T12:11:15.535Z,94652.96
2018-10-18T12:13:44.105Z,94650.42
2018-10-18T12:16:12.812Z,94651.71
2018-10-18T12:18:41.525Z,94646.97
2018-10-18T12:21:10.183Z,94649.82
2018-10-18T12:23:38.919Z,94645.23
2018-10-18T12:26:07.646Z,94645.88
2018-10-18T12:28:36.387Z,94645.19
2018-10-18T12:31:05.075Z,94643.58
2018-10-18T12:33:33.759Z,94644.35
2018-10-18T12:36:02.491Z,94646.09
2018-10-18T12:38:31.274Z,94646.06
2018-10-18T12:41:00.098Z,94644.72
2018-10-18T12:43:28.679Z,94638.08
2018-10-18T12:45:57.473Z,94635.84
2018-10-18T12:48:26.220Z,94640.66
2018-10-18T12:50:54.869Z,94638.02
2018-10-18T12:53:23.606Z,94634.84
2018-10-18T12:55:52.350Z,94633.10
2018-10-18T12:58:21.015Z,94629.99
2018-10-18T13:00:49.692Z,94632.80
2018-10-18T13:03:18.383Z,94634.03
2018-10-18T13:05:47.170Z,94632.70
2018-10-18T13:08:16.075Z,94632.62
2018-10-18T13:10:44.707Z,94634.14
2018-10-18T13:13:14.688Z,94634.55
2018-10-18T13:15:43.536Z,94634.48
2018-10-18T13:18:12.360Z,94634.86
2018-10-18T13:20:40.964Z,94636.26
2018-10-18T13:23:09.746Z,94633.48
2018-10-18T13:25:38.448Z,94634.36
2018-10-18T13:28:07.207Z,94634.94
2018-10-18T13:30:35.937Z,94638.66
2018-10-18T13:33:04.680Z,94629.66
2018-10-18T13:35:33.371Z,94634.61
2018-10-18T13:38:02.151Z,94630.83
2018-10-18T13:40:30.898Z,94635.42
2018-10-18T13:42:59.591Z,94628.16
2018-10-18T13:45:28.276Z,94631.50
2018-10-18T13:47:57.103Z,94630.91
2018-10-18T13:50:26.154Z,94628.86
2018-10-18T13:52:54.883Z,94624.89
2018-10-18T13:55:23.732Z,94626.37
2018-10-18T13:57:52.501Z,94624.70
2018-10-18T14:00:26.208Z,94623.02
2018-10-18T14:02:55.579Z,94624.00
2018-10-18T14:05:24.806Z,94632.25
2018-10-18T14:07:54.339Z,94627.45
2018-10-18T14:10:23.100Z,94625.59
2018-10-18T14:12:52.628Z,94629.37
2018-10-18T14:15:21.354Z,94626.14
2018-10-18T14:17:50.140Z,94623.59
2018-10-18T14:20:18.906Z,94628.96
2018-10-18T14:22:47.534Z,94629.73
2018-10-18T14:25:16.261Z,94624.95
2018-10-18T14:27:45.018Z,94631.90
2018-10-18T14:30:14.264Z,94632.17
2018-10-18T14:32:42.932Z,94626.33
2018-10-18T14:35:12.836Z,94626.33
2018-10-18T14:37:41.660Z,94627.09
2018-10-18T14:40:11.825Z,94631.86
2018-10-18T14:42:40.529Z,94630.50
2018-10-18T14:45:09.735Z,94629.92
2018-10-18T14:47:38.570Z,94627.91
2018-10-18T14:50:09.530Z,94631.59
2018-10-18T14:52:38.186Z,94627.84
2018-10-18T14:55:07.226Z,94628.34
2018-10-18T14:57:36.022Z,94635.66
2018-10-18T15:00:09.247Z,94633.02
2018-10-18T15:02:38.067Z,94636.09
2018-10-18T15:05:07.985Z,94637.23
2018-10-18T15:07:36.770Z,94634.94
2018-10-18T15:10:06.788Z,94636.02
2018-10-18T15:12:35.617Z,94634.52
2018-10-18T15:15:04.461Z,94632.77
2018-10-18T15:17:33.185Z,94635.00
2018-10-18T15:20:02.003Z,94628.99
2018-10-18T15:22:30.754Z,94632.09
2018-10-18T15:25:00.463Z,94627.52
2018-10-18T15:27:29.241Z,94630.13
2018-10-18T15:29:57.990Z,94631.41
2018-10-18T15:32:26.692Z,94636.73
2018-10-18T15:34:57.385Z,94633.83
2018-10-18T15:37:26.119Z,94644.02
2018-10-18T15:39:54.954Z,94646.38
2018-10-18T15:42:23.801Z,94652.22
2018-10-18T15:44:52.610Z,94644.03
2018-10-18T15:47:21.391Z,94649.23
2018-10-18T15:49:50.112Z,94655.66
2018-10-18T15:52:19.001Z,94658.73
2018-10-18T15:54:49.771Z,94657.66
2018-10-18T15:57:18.623Z,94657.81
2018-10-18T15:59:47.410Z,94661.23
2018-10-18T16:02:16.210Z,94665.05
2018-10-18T16:04:44.973Z,94671.31
2018-10-18T16:07:13.657Z,94674.02
2018-10-18T16:09:42.379Z,94676.97
2018-10-18T16:12:11.600Z,94679.52
2018-10-18T16:14:40.331Z,94681.34
2018-10-18T16:17:09.097Z,94678.07
2018-10-18T16:19:37.798Z,94683.14
2018-10-18T16:22:06.679Z,94682.80
2018-10-18T16:24:35.409Z,94684.19
2018-10-18T16:27:04.141Z,94690.67
2018-10-18T16:29:32.943Z,94688.87
2018-10-18T16:32:02.627Z,94691.06
2018-10-18T16:34:31.377Z,94691.59
2018-10-18T16:37:00.294Z,94694.17
2018-10-18T16:39:29.059Z,94696.84
2018-10-18T16:41:57.765Z,94703.41
2018-10-18T16:44:26.525Z,94703.85
2018-10-18T16:46:55.218Z,94701.62
2018-10-18T16:49:23.928Z,94703.52
2018-10-18T16:51:52.650Z,94705.52
2018-10-18T16:54:21.378Z,94706.36
2018-10-18T16:56:50.111Z,94702.13
2018-10-18T16:59:18.845Z,94705.36
2018-10-18T17:01:47.537Z,94710.83
2018-10-18T17:04:16.480Z,94706.52
2018-10-18T17:06:45.388Z,94709.98
2018-10-18T17:09:14.264Z,94715.38
2018-10-18T17:11:42.949Z,94716.67
2018-10-18T17:14:11.768Z,94716.02
2018-10-18T17:16:40.470Z,94717.27
2018-10-18T17:19:09.224Z,94718.69
2018-10-18T17:21:37.885Z,94713.05
2018-10-18T17:24:06.622Z,94712.65
2018-10-18T17:26:36.329Z,94718.48
2018-10-18T17:29:05.023Z,94725.43
2018-10-18T17:31:33.697Z,94724.80
2018-10-18T17:34:02.393Z,94722.89
2018-10-18T17:36:31.126Z,94728.17
2018-10-18T17:38:59.798Z,94730.91
2018-10-18T17:41:28.499Z,94731.73
2018-10-18T17:43:57.208Z,94733.06
2018-10-18T17:46:25.950Z,94738.10
2018-10-18T17:48:54.642Z,94738.52
2018-10-18T17:51:23.426Z,94740.64
2018-10-18T17:53:52.274Z,94741.39
2018-10-18T17:56:21.047Z,94746.14
2018-10-18T17:58:49.761Z,94742.69
2018-10-18T18:02:47.562Z,94738.44
2018-10-18T18:05:16.333Z,94735.52
2018-10-18T18:07:45.119Z,94739.38
2018-10-18T18:10:15.591Z,94736.30
2018-10-18T18:12:44.407Z,94738.91
2018-10-18T18:15:13.216Z,94738.76
2018-10-18T18:17:41.898Z,94739.75
2018-10-18T18:20:12.005Z,94739.21
2018-10-18T18:22:40.979Z,94743.98
2018-10-18T18:25:11.172Z,94748.23
2018-10-18T18:27:40.151Z,94749.87
2018-10-18T18:30:14.652Z,94752.16
2018-10-18T18:32:43.980Z,94753.00
2018-10-18T18:35:12.733Z,94748.66
2018-10-18T18:37:41.475Z,94752.03
2018-10-18T18:40:10.742Z,94757.42
2018-10-18T18:42:40.457Z,94762.92
2018-10-18T18:45:15.259Z,94761.22
2018-10-18T18:47:43.838Z,94770.10
2018-10-18T18:50:12.867Z,94769.70
2018-10-18T18:52:41.571Z,94769.61
2018-10-18T18:55:11.030Z,94766.92
2018-10-18T18:57:40.005Z,94777.23
2018-10-18T19:00:12.371Z,94783.48
2018-10-18T19:02:41.030Z,94779.48
2018-10-18T19:05:10.048Z,94782.31
2018-10-18T19:07:38.674Z,94786.45
2018-10-18T19:10:08.771Z,94786.87
2018-10-18T19:12:37.443Z,94797.77
2018-10-18T19:15:07.538Z,94800.69
2018-10-18T19:17:36.252Z,94803.42
2018-10-18T19:20:05.060Z,94802.11
2018-10-18T19:22:33.796Z,94803.53
2018-10-18T19:25:02.508Z,94802.31
2018-10-18T19:27:31.189Z,94801.60
2018-10-18T19:29:59.886Z,94805.65
2018-10-18T19:32:28.555Z,94804.73
2018-10-18T19:34:57.532Z,94806.55
2018-10-18T19:37:26.199Z,94807.47
2018-10-18T19:39:54.994Z,94809.78
2018-10-18T19:42:23.686Z,94813.51
2018-10-18T19:44:52.409Z,94815.62
2018-10-18T19:47:21.214Z,94817.55
2018-10-18T19:49:49.921Z,94822.17
2018-10-18T19:52:19.082Z,94823.45
2018-10-18T19:54:50.247Z,94822.03
2018-10-18T19:57:19.857Z,94825.76
2018-10-18T19:59:48.544Z,94825.55
2018-10-18T20:02:17.193Z,94819.41
2018-10-18T20:04:46.940Z,94820.31
2018-10-18T20:07:15.622Z,94818.89
2018-10-18T20:09:44.363Z,94818.06
2018-10-18T20:12:16.635Z,94816.17
2018-10-18T20:14:45.221Z,94816.64
2018-10-18T20:17:13.892Z,94819.88
2018-10-18T20:19:42.608Z,94820.58
2018-10-18T20:22:12.965Z,94816.53
2018-10-18T20:24:41.757Z,94822.66
2018-10-18T20:27:11.250Z,94816.63
2018-10-18T20:29:39.948Z,94817.73
2018-10-18T20:32:08.646Z,94807.56
2018-10-18T20:34:37.328Z,94814.02
2018-10-18T20:37:06.793Z,94815.02
2018-10-18T20:39:35.480Z,94815.02
2018-10-18T20:42:04.368Z,94813.72
2018-10-18T20:44:33.167Z,94807.89
2018-10-18T20:47:01.888Z,94810.09
2018-10-18T20:49:30.500Z,94815.12
2018-10-18T20:51:59.256Z,94810.99
2018-10-18T20:55:57.322Z,94815.02
2018-10-18T20:58:25.988Z,94813.02
2018-10-18T21:00:54.748Z,94811.09
2018-10-18T21:03:23.469Z,94816.69
2018-10-18T21:05:52.185Z,94808.31
2018-10-18T21:08:20.839Z,94810.23
2018-10-18T21:10:49.475Z,94815.66
2018-10-18T21:13:18.174Z,94812.83
2018-10-18T21:16:01.555Z,94813.44
2018-10-18T21:18:30.205Z,94808.38
2018-10-18T21:20:58.954Z,94810.29
2018-10-18T21:23:27.676Z,94807.63
2018-10-18T21:25:56.358Z,94807.42
2018-10-18T21:28:25.007Z,94806.52
2018-10-18T21:30:53.686Z,94811.64
2018-10-18T21:36:00.087Z,94807.00
2018-10-18T21:38:28.744Z,94812.86
2018-10-18T21:40:57.512Z,94814.75
2018-10-18T21:43:26.273Z,94810.79
2018-10-18T21:45:57.413Z,94814.45
2018-10-18T21:48:27.611Z,94819.66
2018-10-18T21:50:56.497Z,94823.89
2018-10-18T21:53:25.163Z,94816.81
2018-10-18T21:55:53.860Z,94812.19
2018-10-18T21:58:22.507Z,94818.36
2018-10-18T22:00:51.162Z,94821.80
2018-10-18T22:03:19.808Z,94816.42
2018-10-18T22:05:48.423Z,94821.14
2018-10-18T22:08:17.127Z,94822.09
2018-10-18T22:10:45.793Z,94823.91
2018-10-18T22:13:14.534Z,94819.84
2018-10-18T22:15:43.246Z,94820.59
2018-10-18T22:18:11.934Z,94815.13
2018-10-18T22:20:40.570Z,94818.14
2018-10-18T22:23:09.892Z,94821.95
2018-10-18T22:25:38.502Z,94821.63
2018-10-18T22:28:07.241Z,94820.09
2018-10-18T22:30:35.893Z,94822.89
2018-10-18T22:33:04.572Z,94814.50
2018-10-18T22:35:33.202Z,94819.02
2018-10-18T22:38:01.813Z,94823.84
2018-10-18T22:40:30.463Z,94822.28
2018-10-18T22:42:59.153Z,94817.73
2018-10-18T22:45:27.789Z,94821.14
2018-10-18T22:47:56.644Z,94825.81
2018-10-18T22:50:25.284Z,94826.37
2018-10-18T22:52:53.973Z,94825.07
2018-10-18T22:55:22.647Z,94823.38
2018-10-18T22:57:51.300Z,94827.17
2018-10-18T23:00:19.900Z,94826.73
2018-10-18T23:02:48.642Z,94828.94
2018-10-18T23:05:17.399Z,94829.81
2018-10-18T23:07:46.043Z,94831.80
2018-10-18T23:10:14.721Z,94833.05
2018-10-18T23:12:43.345Z,94832.67
2018-10-18T23:15:12.215Z,94833.66
2018-10-18T23:17:40.871Z,94827.80
2018-10-18T23:20:10.101Z,94824.91
2018-10-18T23:22:38.737Z,94826.89
2018-10-18T23:25:07.525Z,94829.88
2018-10-18T23:27:36.176Z,94830.05
2018-10-18T23:30:09.051Z,94830.17
2018-10-18T23:32:37.816Z,94831.91
2018-10-18T23:35:06.816Z,94833.66
2018-10-18T23:37:35.454Z,94833.39
2018-10-18T23:40:04.453Z,94832.83
2018-10-18T23:42:33.060Z,94832.83
2018-10-18T23:45:01.717Z,94832.57
2018-10-18T23:47:30.334Z,94828.69
2018-10-18T23:49:58.963Z,94825.95
2018-10-18T23:52:27.618Z,94828.37
2018-10-18T23:56:25.606Z,94822.22
2018-10-18T23:58:54.213Z,94821.42
